Time;durP1;ratioP1;P1;durP2;ratioP2;P2;SDS_P1;SDS_P2;PMS_P1;PMS_P2;Temp;Humidity;BMP_temperature;BMP_pressure;BME280_temperature;BME280_humidity;BME280_pressure;Samples;Min_cycle;Max_cycle;Signal;HPM_P1;HPM_P2
2022/07/04 03:02:05;;;;;;;0.45;0.45;;;29.10;42.10;;;;;;5152834;23;45401;-60
2022/07/04 03:04:31;;;;;;;0.30;0.30;;;29.10;42.10;;;;;;4921083;28;45626;-61
2022/07/04 03:06:57;;;;;;;0.30;0.30;;;29.10;42.10;;;;;;4926797;28;44928;-64
2022/07/04 03:09:22;;;;;;;0.40;0.40;;;29.10;42.10;;;;;;4940617;28;45268;-68
2022/07/04 03:11:48;;;;;;;0.40;0.40;;;29.10;42.10;;;;;;4943374;28;45178;-62
2022/07/04 03:14:14;;;;;;;0.30;0.30;;;29.10;42.10;;;;;;4947262;28;45291;-65
2022/07/04 03:16:39;;;;;;;0.40;0.30;;;29.10;42.10;;;;;;4922106;28;45317;-64
2022/07/04 03:19:05;;;;;;;0.40;0.40;;;29.10;42.10;;;;;;4947288;28;47187;-64
2022/07/04 03:21:30;;;;;;;0.55;0.50;;;29.10;42.10;;;;;;4949172;28;45527;-69
2022/07/04 03:23:59;;;;;;;0.40;0.40;;;29.10;42.20;;;;;;4948314;28;45237;-67
2022/07/04 03:26:25;;;;;;;0.40;0.40;;;29.10;42.20;;;;;;4922008;28;45223;-63
2022/07/04 03:28:52;;;;;;;0.30;0.30;;;29.10;42.20;;;;;;4927167;28;46451;-64
2022/07/04 03:31:17;;;;;;;0.45;0.45;;;29.10;42.20;;;;;;4924829;28;45542;-66
2022/07/04 03:33:43;;;;;;;0.38;0.35;;;29.10;42.20;;;;;;4927486;28;44731;-64
2022/07/04 03:36:09;;;;;;;0.30;0.30;;;29.10;42.20;;;;;;4948822;28;45335;-64
2022/07/04 03:38:34;;;;;;;0.45;0.40;;;29.00;42.80;;;;;;4953720;28;47282;-61
2022/07/04 03:41:00;;;;;;;0.63;0.50;;;29.00;42.10;;;;;;4936475;28;45780;-68
2022/07/04 03:43:26;;;;;;;0.50;0.50;;;29.00;42.20;;;;;;4953348;28;45460;-61
2022/07/04 03:45:51;;;;;;;0.55;0.47;;;29.00;42.20;;;;;;4954284;28;45168;-64
2022/07/04 03:48:17;;;;;;;0.40;0.40;;;29.00;42.20;;;;;;4951593;28;45954;-62
2022/07/04 03:50:42;;;;;;;0.40;0.40;;;29.00;42.10;;;;;;4947615;28;46031;-64
2022/07/04 03:53:08;;;;;;;0.40;0.40;;;29.00;42.20;;;;;;4941833;28;44722;-63
2022/07/04 03:55:34;;;;;;;0.55;0.50;;;29.00;42.20;;;;;;4943467;28;45574;-68
2022/07/04 03:57:59;;;;;;;0.40;0.30;;;29.00;42.20;;;;;;4946373;28;46057;-67
2022/07/04 04:00:25;;;;;;;0.40;0.40;;;29.00;42.20;;;;;;4943733;28;45949;-67
2022/07/04 04:02:50;;;;;;;0.30;0.30;;;29.00;42.20;;;;;;4944577;28;45573;-67
2022/07/04 04:05:30;;;;;;;0.82;0.40;;;29.00;42.20;;;;;;4946443;28;45571;-63
2022/07/04 04:07:59;;;;;;;0.85;0.50;;;29.00;42.30;;;;;;4946196;28;45702;-65
2022/07/04 04:10:26;;;;;;;0.70;0.50;;;29.00;42.30;;;;;;4942394;28;45470;-63
2022/07/04 04:12:51;;;;;;;0.60;0.40;;;29.00;42.30;;;;;;4947631;28;45491;-66
2022/07/04 04:15:17;;;;;;;0.85;0.45;;;29.00;42.30;;;;;;4946462;28;46119;-62
2022/07/04 04:17:43;;;;;;;2.25;0.50;;;29.00;42.30;;;;;;4949400;28;46080;-70
2022/07/04 04:20:08;;;;;;;0.40;0.30;;;29.00;42.30;;;;;;4947502;28;45287;-67
2022/07/04 04:22:34;;;;;;;0.35;0.35;;;29.00;42.30;;;;;;4947081;28;45532;-64
2022/07/04 04:25:00;;;;;;;0.50;0.40;;;29.00;42.30;;;;;;4947887;28;45443;-64
2022/07/04 04:27:25;;;;;;;0.82;0.40;;;29.00;42.30;;;;;;4913563;28;47548;-63
2022/07/04 04:29:51;;;;;;;0.63;0.50;;;29.00;42.30;;;;;;4946751;28;45328;-66
2022/07/04 04:32:17;;;;;;;0.43;0.43;;;29.00;42.40;;;;;;4945174;28;45601;-66
2022/07/04 04:34:42;;;;;;;0.40;0.40;;;29.00;42.30;;;;;;4947196;28;46146;-69
2022/07/04 04:37:08;;;;;;;0.32;0.32;;;29.00;42.30;;;;;;4947023;28;46190;-65
2022/07/04 04:39:33;;;;;;;0.30;0.30;;;29.00;42.30;;;;;;4946386;28;45546;-65
2022/07/04 04:41:59;;;;;;;0.40;0.40;;;29.00;42.30;;;;;;4927112;28;45296;-69
2022/07/04 04:44:25;;;;;;;0.30;0.30;;;29.00;42.40;;;;;;4929692;28;45156;-65
2022/07/04 04:46:50;;;;;;;1.20;0.43;;;29.00;42.30;;;;;;4944501;28;46021;-66
2022/07/04 04:49:17;;;;;;;0.75;0.45;;;29.00;42.40;;;;;;4951348;28;44930;-68
2022/07/04 04:51:42;;;;;;;0.65;0.40;;;28.90;42.30;;;;;;4950800;28;45442;-64
2022/07/04 04:54:08;;;;;;;1.25;0.65;;;28.90;41.10;;;;;;4950058;28;45208;-63
2022/07/04 04:56:33;;;;;;;2.40;0.43;;;28.70;40.70;;;;;;4932041;28;45409;-62
2022/07/04 04:58:59;;;;;;;1.60;0.73;;;28.60;40.30;;;;;;4948094;28;45455;-65
2022/07/04 05:01:25;;;;;;;2.72;0.82;;;28.40;40.50;;;;;;4948215;28;45392;-62
2022/07/04 05:03:50;;;;;;;2.75;0.80;;;28.40;40.50;;;;;;4949094;28;44842;-63
2022/07/04 05:06:16;;;;;;;1.50;0.80;;;28.30;40.50;;;;;;4949283;28;46089;-61
2022/07/04 05:08:41;;;;;;;1.88;0.70;;;28.20;40.50;;;;;;4946932;28;45129;-63
2022/07/04 05:11:07;;;;;;;0.95;0.70;;;28.20;40.50;;;;;;4949343;28;45628;-67
2022/07/04 05:13:33;;;;;;;2.03;0.80;;;28.10;40.40;;;;;;4935184;28;45790;-58
2022/07/04 05:15:58;;;;;;;1.83;0.50;;;28.10;40.30;;;;;;4952471;28;46378;-63
2022/07/04 05:18:24;;;;;;;0.90;0.70;;;28.10;40.20;;;;;;4951234;28;45691;-66
2022/07/04 05:20:49;;;;;;;0.85;0.65;;;28.00;40.20;;;;;;4951530;28;45534;-64
2022/07/04 05:23:15;;;;;;;0.73;0.63;;;27.90;40.30;;;;;;4952655;28;45465;-59
2022/07/04 05:25:41;;;;;;;0.68;0.68;;;27.90;40.20;;;;;;4953283;28;45578;-61
2022/07/04 05:28:06;;;;;;;1.27;0.63;;;27.90;40.30;;;;;;4951361;28;45554;-69
2022/07/04 05:30:32;;;;;;;1.08;0.70;;;27.80;40.20;;;;;;4945827;28;45318;-72
2022/07/04 05:32:58;;;;;;;1.77;0.65;;;27.80;40.20;;;;;;4952387;28;45194;-62
2022/07/04 05:35:24;;;;;;;1.40;0.80;;;27.80;40.20;;;;;;4953866;28;46031;-64
2022/07/04 05:37:49;;;;;;;1.17;0.70;;;27.80;40.20;;;;;;4956444;28;45238;-65
2022/07/04 05:40:15;;;;;;;1.75;0.60;;;27.80;40.30;;;;;;4955247;28;45181;-61
2022/07/04 05:42:40;;;;;;;0.90;0.60;;;27.80;40.30;;;;;;4953888;28;45054;-64
2022/07/04 05:45:07;;;;;;;1.65;0.68;;;27.80;40.20;;;;;;4956957;28;45318;-62
2022/07/04 05:47:32;;;;;;;1.02;0.60;;;27.80;40.20;;;;;;4957861;28;45388;-62
2022/07/04 05:50:00;;;;;;;0.90;0.70;;;27.70;40.10;;;;;;4947652;28;45370;-63
2022/07/04 05:52:25;;;;;;;0.68;0.50;;;27.70;40.20;;;;;;4952046;28;45729;-65
2022/07/04 05:54:51;;;;;;;2.35;0.80;;;27.70;40.20;;;;;;4949690;28;45957;-66
2022/07/04 05:57:16;;;;;;;2.60;0.60;;;27.70;40.20;;;;;;4957314;28;45505;-66
2022/07/04 05:59:42;;;;;;;2.72;0.70;;;27.70;40.20;;;;;;4950510;28;44937;-62
2022/07/04 06:02:08;;;;;;;4.00;0.60;;;27.60;40.20;;;;;;4952807;28;45094;-66
2022/07/04 06:04:33;;;;;;;0.82;0.40;;;27.60;40.20;;;;;;4952217;28;46086;-67
2022/07/04 06:06:59;;;;;;;1.13;0.60;;;27.60;40.20;;;;;;4952345;28;46420;-65
2022/07/04 06:09:24;;;;;;;0.57;0.50;;;27.60;40.20;;;;;;4952961;28;45342;-60
2022/07/04 06:11:50;;;;;;;1.10;0.70;;;27.70;40.20;;;;;;4954687;28;45578;-60
2022/07/04 06:14:16;;;;;;;1.90;0.40;;;27.70;40.10;;;;;;4957289;28;46041;-61
2022/07/04 06:16:41;;;;;;;1.52;0.98;;;27.80;40.00;;;;;;4946921;28;45035;-60
2022/07/04 06:19:07;;;;;;;1.20;0.50;;;27.80;40.00;;;;;;4952368;28;45362;-59
2022/07/04 06:21:32;;;;;;;2.10;0.60;;;27.80;40.00;;;;;;4949700;28;45220;-64
2022/07/04 06:23:58;;;;;;;1.52;0.82;;;27.80;39.90;;;;;;4951453;28;45464;-61
2022/07/04 06:26:24;;;;;;;0.88;0.60;;;27.80;40.00;;;;;;4937771;28;45289;-62
2022/07/04 06:28:49;;;;;;;1.70;0.50;;;27.80;40.00;;;;;;4950034;28;45230;-61
2022/07/04 06:31:15;;;;;;;2.17;0.68;;;27.80;40.00;;;;;;4955172;28;45555;-61
2022/07/04 06:36:25;;;;;;;1.17;0.50;;;27.80;40.00;;;;;;4946320;28;45265;-61
2022/07/04 06:38:51;;;;;;;1.33;0.60;;;27.80;40.00;;;;;;4950878;28;44984;-62
2022/07/04 06:41:16;;;;;;;0.98;0.52;;;27.90;40.10;;;;;;4951473;28;45270;-58
2022/07/04 06:43:42;;;;;;;2.88;0.52;;;27.90;40.00;;;;;;4930115;28;46013;-62
2022/07/04 06:46:08;;;;;;;3.80;0.50;;;27.90;40.00;;;;;;4948685;28;45550;-66
2022/07/04 06:48:33;;;;;;;1.73;0.50;;;28.00;40.10;;;;;;4926587;28;45216;-62
2022/07/04 06:50:59;;;;;;;0.80;0.57;;;28.00;40.00;;;;;;4953645;28;45187;-62
2022/07/04 06:53:24;;;;;;;1.38;0.70;;;28.00;39.90;;;;;;4949844;28;45484;-64
2022/07/04 06:55:50;;;;;;;3.10;0.80;;;28.00;39.90;;;;;;4930980;28;45324;-63
2022/07/04 06:58:16;;;;;;;1.05;0.70;;;28.00;39.90;;;;;;4952833;28;45459;-61
2022/07/04 07:00:41;;;;;;;1.00;0.60;;;28.10;39.90;;;;;;4951302;28;45056;-61
2022/07/04 07:03:07;;;;;;;5.30;0.68;;;28.10;39.80;;;;;;4945643;28;45971;-61
2022/07/04 07:05:36;;;;;;;3.08;0.50;;;28.10;39.80;;;;;;4952975;28;45627;-62
2022/07/04 07:08:02;;;;;;;1.92;0.90;;;28.10;39.80;;;;;;4951497;28;45356;-62
2022/07/04 07:10:28;;;;;;;1.52;0.80;;;28.10;39.80;;;;;;4949571;28;45234;-62
2022/07/04 07:12:53;;;;;;;2.75;1.05;;;28.10;39.80;;;;;;4948623;28;45954;-63
2022/07/04 07:15:19;;;;;;;2.40;1.20;;;28.20;39.80;;;;;;4949950;28;45317;-63
2022/07/04 07:17:45;;;;;;;5.13;1.05;;;28.20;39.80;;;;;;4953202;28;45249;-62
2022/07/04 07:20:13;;;;;;;3.28;0.90;;;28.20;39.70;;;;;;4956062;28;45411;-61
2022/07/04 07:22:39;;;;;;;1.83;1.00;;;28.20;39.70;;;;;;4949016;28;45514;-63
2022/07/04 07:25:20;;;;;;;4.57;0.85;;;28.20;39.70;;;;;;4948018;28;45412;-62
2022/07/04 07:27:46;;;;;;;1.65;0.77;;;28.30;40.20;;;;;;4955403;28;45430;-62
2022/07/04 07:30:11;;;;;;;3.55;0.90;;;28.30;39.50;;;;;;4953092;28;45376;-60
2022/07/04 07:32:37;;;;;;;2.00;0.85;;;28.30;39.50;;;;;;4950805;28;46081;-58
2022/07/04 07:35:03;;;;;;;2.35;0.77;;;28.30;39.50;;;;;;4951025;28;45496;-62
2022/07/04 07:37:29;;;;;;;1.20;0.73;;;28.40;39.50;;;;;;4952694;28;45024;-63
2022/07/04 07:39:54;;;;;;;1.88;1.00;;;28.40;39.50;;;;;;4921012;28;45746;-62
2022/07/04 07:42:20;;;;;;;3.28;0.80;;;28.40;39.50;;;;;;4950824;28;47094;-59
2022/07/04 07:44:46;;;;;;;1.38;0.90;;;28.40;39.40;;;;;;4952571;28;45281;-60
2022/07/04 07:47:13;;;;;;;0.88;0.68;;;28.40;39.40;;;;;;4957648;28;45017;-62
2022/07/04 07:49:38;;;;;;;2.75;0.80;;;28.40;39.40;;;;;;4941057;28;45237;-63
2022/07/04 07:52:04;;;;;;;1.02;0.88;;;28.40;39.40;;;;;;4954917;28;45995;-61
2022/07/04 07:54:30;;;;;;;2.50;0.68;;;28.40;39.30;;;;;;4951201;28;45222;-63
2022/07/04 07:56:55;;;;;;;1.75;1.05;;;28.40;39.40;;;;;;4953014;28;45224;-62
2022/07/04 07:59:21;;;;;;;2.60;0.98;;;28.40;39.40;;;;;;4953085;28;44741;-59
2022/07/04 08:01:46;;;;;;;1.23;0.80;;;28.40;39.40;;;;;;4951476;28;47036;-62
2022/07/04 08:06:56;;;;;;;1.98;0.60;;;28.50;39.40;;;;;;4947759;28;45281;-60
2022/07/04 08:09:22;;;;;;;2.50;0.90;;;28.50;39.40;;;;;;4954503;28;45261;-62
2022/07/04 08:11:47;;;;;;;1.02;0.70;;;28.50;39.40;;;;;;4951894;28;45362;-57
2022/07/04 08:14:13;;;;;;;1.58;0.77;;;28.50;39.50;;;;;;4951685;28;44992;-58
2022/07/04 08:16:40;;;;;;;1.42;0.65;;;28.50;39.50;;;;;;4954391;28;45397;-63
2022/07/04 08:19:05;;;;;;;1.25;0.70;;;28.50;39.50;;;;;;4954314;28;44978;-62
2022/07/04 08:21:31;;;;;;;0.80;0.70;;;28.50;39.40;;;;;;4948047;28;45839;-66
2022/07/04 08:23:56;;;;;;;1.67;0.82;;;28.50;39.40;;;;;;4951072;28;45224;-62
2022/07/04 08:26:22;;;;;;;1.98;0.90;;;28.50;39.40;;;;;;4953551;28;45607;-57
2022/07/04 08:28:48;;;;;;;3.33;1.05;;;28.60;39.50;;;;;;4940359;28;45444;-61
2022/07/04 08:31:13;;;;;;;1.10;0.80;;;28.60;39.40;;;;;;4936393;28;46355;-63
2022/07/04 08:33:39;;;;;;;1.42;1.00;;;28.60;39.40;;;;;;4952333;28;44931;-60
2022/07/04 08:36:04;;;;;;;0.60;0.60;;;28.60;39.40;;;;;;4941055;28;45362;-62
2022/07/04 08:38:30;;;;;;;1.50;0.90;;;28.60;39.50;;;;;;4952883;28;45421;-60
2022/07/04 08:40:58;;;;;;;0.77;0.63;;;28.60;39.50;;;;;;4953623;28;45825;-61
2022/07/04 08:43:24;;;;;;;1.80;1.02;;;28.60;39.50;;;;;;4950957;28;45239;-60
2022/07/04 08:45:49;;;;;;;3.15;0.90;;;28.60;39.50;;;;;;4946482;28;45276;-61
2022/07/04 08:48:15;;;;;;;3.47;1.17;;;28.60;39.40;;;;;;4931150;28;45090;-58
2022/07/04 08:50:44;;;;;;;5.07;1.00;;;28.60;39.40;;;;;;4934638;28;45638;-60
2022/07/04 08:53:15;;;;;;;3.47;0.90;;;28.60;39.30;;;;;;4941583;28;45464;-57
2022/07/04 08:58:25;;;;;;;4.07;0.82;;;28.70;39.30;;;;;;4940069;28;45524;-57
2022/07/04 09:00:55;;;;;;;3.10;1.35;;;28.60;39.20;;;;;;4954051;28;47151;-57
2022/07/04 09:03:21;;;;;;;3.30;1.20;;;28.70;39.20;;;;;;4930656;28;45441;-54
2022/07/04 09:05:47;;;;;;;5.30;1.25;;;28.70;39.10;;;;;;4952174;28;45661;-56
2022/07/04 09:08:12;;;;;;;2.28;1.13;;;28.70;39.20;;;;;;4954297;28;45398;-57
2022/07/04 09:10:38;;;;;;;6.15;1.52;;;28.70;39.10;;;;;;4951492;28;45967;-58
2022/07/04 09:13:04;;;;;;;5.22;1.27;;;28.70;39.00;;;;;;4949904;28;45675;-58
2022/07/04 09:15:31;;;;;;;2.95;1.15;;;28.70;39.10;;;;;;4948497;28;45638;-58
2022/07/04 09:17:57;;;;;;;1.52;0.80;;;28.70;39.10;;;;;;4952548;28;45574;-57
2022/07/04 09:20:23;;;;;;;2.53;1.00;;;28.70;39.20;;;;;;4949815;28;45653;-56
2022/07/04 09:22:49;;;;;;;5.13;1.10;;;28.70;39.20;;;;;;4951327;28;44706;-54
2022/07/04 09:25:15;;;;;;;2.28;1.25;;;28.70;39.20;;;;;;4952473;28;45034;-55
2022/07/04 09:27:51;;;;;;;2.72;1.00;;;28.70;39.20;;;;;;4948055;28;45440;-57
2022/07/04 09:30:21;;;;;;;3.60;0.95;;;28.70;39.10;;;;;;4953786;28;46107;-56
2022/07/04 09:32:48;;;;;;;2.83;1.00;;;28.70;39.20;;;;;;4956215;28;44699;-56
2022/07/04 09:35:17;;;;;;;3.80;0.90;;;28.70;39.30;;;;;;4950281;28;45574;-57
2022/07/04 09:37:51;;;;;;;2.20;1.00;;;28.70;39.40;;;;;;4956496;28;45320;-58
2022/07/04 09:41:24;;;;;;;2.13;0.88;;;28.70;39.40;;;;;;4954349;28;47278;-56
2022/07/04 09:43:19;;;;;;;1.15;0.80;;;28.70;39.40;;;;;;4949744;28;45288;-58
2022/07/04 09:45:58;;;;;;;1.27;0.90;;;28.70;39.50;;;;;;4949787;28;46017;-57
2022/07/04 09:48:24;;;;;;;2.75;0.80;;;28.80;39.60;;;;;;4952291;28;45512;-58
2022/07/04 09:50:50;;;;;;;1.02;0.70;;;28.80;39.40;;;;;;4935774;28;45668;-57
2022/07/04 09:53:16;;;;;;;0.90;0.77;;;28.80;39.40;;;;;;4936911;28;45365;-57
2022/07/04 09:55:41;;;;;;;1.38;0.88;;;28.80;39.50;;;;;;4947392;28;45679;-56
2022/07/04 09:58:08;;;;;;;1.17;0.68;;;28.80;39.30;;;;;;4949239;28;45658;-57
2022/07/04 10:00:35;;;;;;;3.72;0.90;;;28.80;39.30;;;;;;4925293;28;46743;-57
2022/07/04 10:03:20;;;;;;;1.45;0.80;;;28.80;39.40;;;;;;4948884;28;45725;-58
2022/07/04 10:05:47;;;;;;;2.50;0.90;;;28.80;39.40;;;;;;4949064;28;45406;-58
2022/07/04 10:08:12;;;;;;;1.80;0.80;;;28.80;39.50;;;;;;4933232;28;45373;-60
2022/07/04 10:10:39;;;;;;;2.80;1.02;;;28.80;39.60;;;;;;4931131;28;45805;-56
2022/07/04 10:13:14;;;;;;;0.80;0.73;;;28.80;39.60;;;;;;4948542;28;45049;-58
2022/07/04 10:15:41;;;;;;;0.95;0.77;;;28.80;39.50;;;;;;4954230;28;45320;-60
2022/07/04 10:18:07;;;;;;;1.00;0.68;;;28.90;39.60;;;;;;4947583;28;45492;-58
2022/07/04 10:20:33;;;;;;;2.10;0.82;;;28.90;39.50;;;;;;4951699;28;45420;-58
2022/07/04 10:22:59;;;;;;;2.17;0.82;;;28.90;39.30;;;;;;4951814;28;46242;-57
2022/07/04 10:25:24;;;;;;;2.25;0.70;;;28.90;39.30;;;;;;4955006;28;46342;-54
2022/07/04 10:27:51;;;;;;;1.23;0.70;;;28.90;39.20;;;;;;4951270;28;45324;-59
2022/07/04 10:30:26;;;;;;;2.47;0.60;;;28.90;39.20;;;;;;4950883;28;46404;-59
2022/07/04 10:32:52;;;;;;;1.92;0.77;;;28.90;39.30;;;;;;4932133;28;45187;-59
2022/07/04 10:35:18;;;;;;;6.00;0.90;;;29.00;39.20;;;;;;4934382;28;45593;-57
2022/07/04 10:38:09;;;;;;;1.45;0.80;;;29.00;39.20;;;;;;4917635;28;45342;-57
2022/07/04 10:40:54;;;;;;;3.17;0.82;;;29.10;39.10;;;;;;4955169;28;46439;-58
2022/07/04 10:43:41;;;;;;;1.20;0.90;;;29.10;39.10;;;;;;4953786;28;45197;-57
2022/07/04 10:46:12;;;;;;;1.83;0.80;;;29.10;39.10;;;;;;4949821;28;45646;-57
2022/07/04 10:48:48;;;;;;;3.33;0.90;;;29.10;39.10;;;;;;4947093;28;45041;-55
2022/07/04 10:51:15;;;;;;;0.93;0.60;;;29.10;39.00;;;;;;4953768;28;46214;-59
2022/07/04 10:54:19;;;;;;;3.10;0.70;;;29.10;39.20;;;;;;4931674;28;45216;-57
2022/07/04 10:56:46;;;;;;;0.95;0.73;;;29.10;39.20;;;;;;4936138;28;45428;-59
2022/07/04 10:59:16;;;;;;;1.58;0.70;;;29.10;39.30;;;;;;4953656;28;45459;-60
2022/07/04 11:01:46;;;;;;;2.03;0.68;;;29.10;39.60;;;;;;4933092;28;46195;-59
2022/07/04 11:04:12;;;;;;;0.93;0.80;;;29.20;38.90;;;;;;4951815;28;45498;-61
2022/07/04 11:06:42;;;;;;;2.97;0.90;;;29.20;38.90;;;;;;4946656;28;45659;-61
2022/07/04 11:09:20;;;;;;;2.50;0.85;;;29.20;38.80;;;;;;4953375;28;45428;-61
2022/07/04 11:11:55;;;;;;;1.58;0.70;;;29.20;38.70;;;;;;4947195;28;46990;-60
2022/07/04 11:14:46;;;;;;;1.77;0.60;;;29.20;38.70;;;;;;4954567;28;45206;-59
2022/07/04 11:17:13;;;;;;;1.38;0.70;;;29.30;38.60;;;;;;4948791;28;45028;-61
2022/07/04 11:19:39;;;;;;;1.55;0.80;;;29.30;38.60;;;;;;4930856;28;45354;-60
2022/07/04 11:22:06;;;;;;;1.58;0.65;;;29.30;38.40;;;;;;4945878;28;46266;-60
2022/07/04 11:24:31;;;;;;;2.20;0.75;;;29.40;38.50;;;;;;4948872;28;45996;-61
2022/07/04 11:26:57;;;;;;;1.45;0.70;;;29.40;38.40;;;;;;4933749;28;45378;-57
2022/07/04 11:29:23;;;;;;;1.67;0.80;;;29.40;38.40;;;;;;4952061;28;44867;-61
2022/07/04 11:31:50;;;;;;;2.15;0.68;;;29.40;38.30;;;;;;4919846;28;45233;-60
2022/07/04 11:34:16;;;;;;;1.77;0.60;;;29.40;38.10;;;;;;4936288;28;45001;-60
2022/07/04 11:36:42;;;;;;;2.35;0.77;;;29.40;38.10;;;;;;4946703;28;45313;-61
2022/07/04 11:39:09;;;;;;;1.52;0.63;;;29.40;38.00;;;;;;4951209;28;45552;-61
2022/07/04 11:47:15;;;;;;;2.58;0.80;;;29.50;37.60;;;;;;4952602;28;45111;-56
2022/07/04 11:49:57;;;;;;;2.17;0.70;;;29.60;37.30;;;;;;4946626;28;47013;-59
2022/07/04 11:52:26;;;;;;;1.73;0.70;;;29.60;37.10;;;;;;4948036;28;46828;-56
2022/07/04 11:54:52;;;;;;;1.52;0.55;;;29.60;37.10;;;;;;4931026;28;45500;-58
2022/07/04 11:57:22;;;;;;;4.78;0.60;;;29.70;37.10;;;;;;4949477;28;46326;-60
2022/07/04 12:00:08;;;;;;;6.30;0.68;;;29.70;37.00;;;;;;4947540;28;45645;-58
2022/07/04 12:02:34;;;;;;;1.45;0.60;;;29.70;36.50;;;;;;4941253;28;46135;-59
2022/07/04 12:05:02;;;;;;;1.17;0.55;;;29.70;37.00;;;;;;4930863;28;45184;-55
2022/07/04 12:07:28;;;;;;;2.95;0.82;;;29.70;36.90;;;;;;4952554;28;45273;-57
2022/07/04 12:09:54;;;;;;;3.33;0.93;;;29.70;37.00;;;;;;4949088;28;45425;-58
2022/07/04 12:12:20;;;;;;;2.97;1.08;;;29.80;37.00;;;;;;4948382;28;45724;-59
2022/07/04 12:15:06;;;;;;;2.78;0.80;;;29.80;36.90;;;;;;4950709;28;46693;-59
2022/07/04 12:17:37;;;;;;;7.10;0.80;;;29.80;36.10;;;;;;4952244;28;45333;-57
2022/07/04 12:20:12;;;;;;;1.42;0.93;;;29.80;36.70;;;;;;4953588;28;45217;-59
2022/07/04 12:22:42;;;;;;;1.77;0.93;;;29.80;36.70;;;;;;4935827;28;45349;-57
2022/07/04 12:25:20;;;;;;;1.40;0.75;;;29.90;36.60;;;;;;4935132;28;45764;-60
2022/07/04 12:27:52;;;;;;;2.97;0.73;;;29.90;36.50;;;;;;4959362;28;45465;-56
2022/07/04 12:30:17;;;;;;;2.28;0.63;;;30.00;36.40;;;;;;4955494;28;44920;-57
2022/07/04 12:32:47;;;;;;;1.63;0.60;;;30.00;36.50;;;;;;4958749;28;46859;-60
2022/07/04 12:35:38;;;;;;;2.60;0.70;;;30.00;36.40;;;;;;4938753;28;45373;-58
2022/07/04 12:38:07;;;;;;;3.67;0.50;;;30.10;35.80;;;;;;4957126;28;44615;-59
2022/07/04 12:40:34;;;;;;;1.15;0.50;;;30.10;36.20;;;;;;4961152;28;45586;-57
2022/07/04 12:42:59;;;;;;;0.80;0.52;;;30.10;36.00;;;;;;4960902;28;45237;-58
2022/07/04 12:45:25;;;;;;;2.40;0.60;;;30.20;36.10;;;;;;4961547;28;44702;-58
2022/07/04 12:47:52;;;;;;;2.72;0.45;;;30.20;35.80;;;;;;4956065;28;44690;-57
2022/07/04 12:50:26;;;;;;;1.33;0.57;;;30.20;35.80;;;;;;4923502;28;45308;-57
2022/07/04 12:52:51;;;;;;;1.30;0.73;;;30.20;35.60;;;;;;4958400;28;45986;-59
2022/07/04 12:55:17;;;;;;;3.15;0.77;;;30.20;35.80;;;;;;4939920;28;45403;-59
2022/07/04 12:57:43;;;;;;;2.03;0.60;;;30.30;35.80;;;;;;4934230;28;45211;-60
2022/07/04 13:00:09;;;;;;;2.22;0.40;;;30.20;35.50;;;;;;4956066;28;45685;-59
2022/07/04 13:02:34;;;;;;;4.22;0.60;;;30.30;35.50;;;;;;4938127;28;45997;-60
2022/07/04 13:05:00;;;;;;;1.05;0.50;;;30.40;36.10;;;;;;4943787;28;44599;-61
2022/07/04 13:07:25;;;;;;;1.23;0.60;;;30.40;35.20;;;;;;4940197;28;45030;-60
2022/07/04 13:09:51;;;;;;;1.30;0.52;;;30.40;35.20;;;;;;4935958;28;45154;-62
2022/07/04 13:12:27;;;;;;;2.53;0.65;;;30.30;35.10;;;;;;4935137;28;45993;-61
2022/07/04 13:14:53;;;;;;;1.02;0.60;;;30.30;35.10;;;;;;4945576;28;45332;-60
2022/07/04 13:17:19;;;;;;;1.45;0.43;;;30.40;35.10;;;;;;4945330;28;45561;-61
2022/07/04 13:19:45;;;;;;;3.28;0.47;;;30.40;35.00;;;;;;4938198;28;44838;-59
2022/07/04 13:22:10;;;;;;;1.23;0.50;;;30.40;34.80;;;;;;4936966;28;45410;-60
2022/07/04 13:24:36;;;;;;;3.17;0.60;;;30.40;34.80;;;;;;4937799;28;45203;-61
2022/07/04 13:27:01;;;;;;;0.85;0.40;;;30.50;34.80;;;;;;4941132;28;45326;-62
2022/07/04 13:29:27;;;;;;;1.35;0.60;;;30.50;34.60;;;;;;4943071;28;45214;-61
2022/07/04 13:31:53;;;;;;;1.80;0.35;;;30.50;34.40;;;;;;4940426;28;46190;-62
2022/07/04 13:34:18;;;;;;;0.68;0.60;;;30.50;34.20;;;;;;4942972;28;45221;-61
2022/07/04 13:36:45;;;;;;;1.08;0.60;;;30.60;34.20;;;;;;4941028;28;45225;-60
2022/07/04 13:39:11;;;;;;;1.73;0.50;;;30.60;34.00;;;;;;4939578;28;45849;-61
2022/07/04 13:41:36;;;;;;;0.98;0.50;;;30.60;33.80;;;;;;4942857;28;47380;-58
2022/07/04 13:44:03;;;;;;;1.90;0.70;;;30.60;33.60;;;;;;4930728;28;44774;-60
2022/07/04 13:46:28;;;;;;;1.08;0.50;;;30.60;33.60;;;;;;4942649;28;45220;-59
2022/07/04 13:48:54;;;;;;;0.90;0.38;;;30.60;33.50;;;;;;4927472;28;45265;-58
2022/07/04 13:51:20;;;;;;;3.38;0.50;;;30.60;33.40;;;;;;4932592;28;46162;-58
2022/07/04 13:53:45;;;;;;;1.45;0.43;;;30.60;33.50;;;;;;4932557;28;45327;-59
2022/07/04 13:56:12;;;;;;;2.40;0.57;;;30.50;33.40;;;;;;4943802;28;45015;-57
2022/07/04 13:58:38;;;;;;;0.73;0.43;;;30.60;33.50;;;;;;4939310;28;45606;-59
2022/07/04 14:01:03;;;;;;;0.75;0.30;;;30.60;33.50;;;;;;4939063;28;45924;-59
2022/07/04 14:03:29;;;;;;;0.82;0.40;;;30.60;33.60;;;;;;4938323;28;45785;-59
2022/07/04 14:05:54;;;;;;;1.17;0.38;;;30.60;33.30;;;;;;4934412;28;44742;-59
2022/07/04 14:08:20;;;;;;;0.50;0.50;;;30.60;33.20;;;;;;4936095;28;44738;-56
2022/07/04 14:10:45;;;;;;;3.75;0.57;;;30.70;33.10;;;;;;4935945;28;46274;-59
2022/07/04 14:13:11;;;;;;;0.63;0.40;;;30.70;32.90;;;;;;4936667;28;45105;-55
2022/07/04 14:15:37;;;;;;;0.50;0.40;;;30.70;32.80;;;;;;4944025;28;44774;-58
2022/07/04 14:18:06;;;;;;;2.33;0.60;;;30.70;32.40;;;;;;4942207;28;45327;-56
2022/07/04 14:20:32;;;;;;;0.90;0.43;;;30.70;32.40;;;;;;4939802;28;45017;-59
2022/07/04 14:22:57;;;;;;;3.95;0.68;;;30.70;32.30;;;;;;4938265;28;46117;-58
2022/07/04 14:25:23;;;;;;;1.85;0.65;;;30.70;32.00;;;;;;4945069;28;44777;-58
2022/07/04 14:27:48;;;;;;;2.72;0.80;;;30.70;32.00;;;;;;4938541;28;45154;-59
2022/07/04 14:30:14;;;;;;;1.85;0.60;;;30.70;31.90;;;;;;4944378;28;46017;-57
2022/07/04 14:32:39;;;;;;;0.60;0.45;;;30.70;31.70;;;;;;4933933;28;44779;-57
2022/07/04 14:35:05;;;;;;;0.50;0.28;;;30.80;31.90;;;;;;4938843;28;45910;-57
2022/07/04 14:37:31;;;;;;;1.15;0.45;;;30.80;31.80;;;;;;4943725;28;45023;-57
2022/07/04 14:39:56;;;;;;;1.00;0.50;;;30.80;31.50;;;;;;4935301;28;45932;-59
2022/07/04 14:42:22;;;;;;;0.90;0.60;;;30.80;31.60;;;;;;4933733;28;45488;-57
2022/07/04 14:44:48;;;;;;;1.55;0.60;;;30.80;31.60;;;;;;4951851;28;45691;-56
2022/07/04 14:47:13;;;;;;;4.63;0.50;;;30.70;31.50;;;;;;4937735;28;45290;-58
2022/07/04 14:49:39;;;;;;;6.43;0.70;;;30.80;31.70;;;;;;4929576;28;46055;-56
2022/07/04 14:52:05;;;;;;;1.27;0.45;;;30.80;31.70;;;;;;4935595;28;44698;-58
2022/07/04 14:54:32;;;;;;;1.48;0.55;;;30.80;31.70;;;;;;4935456;28;46268;-57
2022/07/04 14:56:58;;;;;;;2.58;0.50;;;30.80;31.70;;;;;;4933816;28;45393;-56
2022/07/04 14:59:23;;;;;;;1.27;0.40;;;30.90;31.50;;;;;;4936629;28;46473;-62
2022/07/04 15:01:49;;;;;;;0.32;0.30;;;30.90;31.60;;;;;;4934968;28;45093;-61
2022/07/04 15:04:15;;;;;;;0.80;0.40;;;30.90;31.50;;;;;;4930101;28;45604;-62
2022/07/04 15:06:41;;;;;;;0.82;0.30;;;30.90;31.60;;;;;;4916687;28;45794;-63
2022/07/04 15:09:06;;;;;;;1.27;0.55;;;30.90;31.60;;;;;;4941743;28;45231;-62
2022/07/04 15:11:32;;;;;;;0.77;0.43;;;31.00;31.30;;;;;;4937208;28;45124;-62
2022/07/04 15:13:58;;;;;;;1.80;0.50;;;31.00;31.30;;;;;;4938935;28;45151;-58
2022/07/04 15:16:24;;;;;;;1.08;0.40;;;31.00;31.20;;;;;;4934668;28;44724;-60
2022/07/04 15:18:53;;;;;;;2.72;0.70;;;31.00;31.10;;;;;;4925902;28;45295;-62
2022/07/04 15:24:12;;;;;;;3.40;0.57;;;31.00;30.80;;;;;;4924925;28;44734;-59
2022/07/04 15:26:38;;;;;;;0.65;0.55;;;31.00;31.20;;;;;;4931836;28;46122;-59
2022/07/04 15:29:04;;;;;;;1.67;0.50;;;31.00;30.70;;;;;;4931463;28;46225;-61
2022/07/04 15:31:29;;;;;;;0.98;0.35;;;31.00;30.40;;;;;;4926296;28;44762;-61
2022/07/04 15:33:55;;;;;;;1.17;0.45;;;31.10;30.30;;;;;;4934081;28;45477;-61
2022/07/04 15:36:21;;;;;;;1.42;0.40;;;31.10;30.20;;;;;;4945702;28;45617;-61
2022/07/04 15:38:47;;;;;;;0.80;0.38;;;31.00;30.10;;;;;;4924446;28;46128;-58
2022/07/04 15:41:15;;;;;;;0.43;0.30;;;31.00;30.00;;;;;;4933995;28;45296;-59
2022/07/04 15:43:41;;;;;;;0.80;0.45;;;31.10;30.00;;;;;;4931193;28;45586;-59
2022/07/04 15:46:06;;;;;;;1.65;0.47;;;31.10;29.80;;;;;;4930941;28;45434;-61
2022/07/04 15:48:32;;;;;;;1.35;0.60;;;31.10;29.90;;;;;;4932745;28;45354;-61
2022/07/04 15:50:58;;;;;;;2.47;0.60;;;31.10;29.70;;;;;;4932822;28;45093;-59
2022/07/04 15:53:23;;;;;;;1.08;0.30;;;31.10;29.70;;;;;;4934625;28;45303;-60
2022/07/04 15:55:49;;;;;;;0.85;0.40;;;31.10;29.70;;;;;;4930897;28;45271;-60
2022/07/04 15:58:14;;;;;;;1.40;0.43;;;31.10;29.50;;;;;;4930607;28;46806;-60
2022/07/04 16:00:40;;;;;;;1.02;0.40;;;31.10;29.50;;;;;;4928220;28;44993;-59
2022/07/04 16:03:06;;;;;;;0.30;0.30;;;31.00;29.50;;;;;;4946884;28;45053;-60
2022/07/04 16:05:33;;;;;;;0.80;0.30;;;31.10;29.40;;;;;;4945779;28;45122;-60